»·PEaware :: SWA545 KSAN-KSMF

SWA545 :: KSAN-KSMF

FLIGHT INFORMATION

Flight Status: Arrived
Operator:
Southwest Airlines
More flights by this operator :: More flights under this callsign
Pilot: Ryan C. (15122)
Aircraft: BOEING 737-800
(B738)
More flights by this aircraft type
Origin: KSAN San Diego Intl-Lindbergh
United States
Destination: KSMF Sacramento Intl
United States
More flights between these airports :: More routes between these airports
Route: +PADRZ2 EHF NURAY SUUTR2
File this flight plan on PilotEdge
Remarks:
Altitude:
(Current/Filed)
32,000ft
Speed:
(Current/Filed)
450kts
Departed: 29-Sep-18 09:41 AM
Arrived: 29-Sep-18 10:47 AM
Distance/Time
Traveled:
417nm/1:06
Distance/Time
To Go:
Arrived

Flight Plot

Page will automatically refresh every two minutes.

Flight plan parsing failed; only flown route is shown


Map Options




Map Legend


Flown Route
Filed Route
Departure Airport
Arrival Airport
Navaid (VOR, NDB)
Fix

Horizontal Profiles

Position Reports

Time Latitude Longitude Heading Altitude Ground
Speed
29-Sep-18 09:20 32.731201 -117.195348 264 21ft 0kts
29-Sep-18 09:21 32.731201 -117.195348 264 21ft 0kts
29-Sep-18 09:22 32.731201 -117.195348 264 21ft 0kts
29-Sep-18 09:23 32.731201 -117.195348 264 21ft 0kts
29-Sep-18 09:24 32.731201 -117.195348 264 21ft 0kts
29-Sep-18 09:25 32.731201 -117.195348 264 21ft 0kts
29-Sep-18 09:26 32.731201 -117.195348 264 21ft 0kts
29-Sep-18 09:27 32.731201 -117.195348 264 21ft 0kts
29-Sep-18 09:28 32.731201 -117.195348 264 21ft 0kts
29-Sep-18 09:29 32.731201 -117.195348 264 21ft 0kts
29-Sep-18 09:30 32.731201 -117.195348 264 21ft 0kts
29-Sep-18 09:31 32.731201 -117.195348 264 21ft 0kts
29-Sep-18 09:32 32.731399 -117.195149 190 21ft 2kts
29-Sep-18 09:33 32.731970 -117.194951 196 21ft 2kts
29-Sep-18 09:34 32.732322 -117.194518 293 21ft 2kts
29-Sep-18 09:35 32.732801 -117.194461 31 21ft 0kts
29-Sep-18 09:36 32.732802 -117.194461 31 21ft 0kts
29-Sep-18 09:37 32.732802 -117.194461 31 21ft 0kts
29-Sep-18 09:38 32.732924 -117.194373 30 21ft 7kts
29-Sep-18 09:39 32.732547 -117.189786 106 19ft 18kts
29-Sep-18 09:40 32.730946 -117.183135 105 17ft 20kts
29-Sep-18 09:41 32.729849 -117.178633 106 20ft 12kts
29-Sep-18 09:42 32.730333 -117.176387 288 24ft 13kts
29-Sep-18 09:43 32.738810 -117.210560 288 1244ft 160kts
29-Sep-18 09:44 32.772229 -117.271904 303 3519ft 259kts
29-Sep-18 09:45 32.815468 -117.343695 305 7291ft 281kts
29-Sep-18 09:46 32.864484 -117.419280 303 10493ft 310kts
29-Sep-18 09:47 32.919357 -117.504489 303 13670ft 335kts
29-Sep-18 09:48 32.976945 -117.594168 303 17064ft 350kts
29-Sep-18 09:49 33.036696 -117.687486 302 20161ft 364kts
29-Sep-18 09:50 33.105175 -117.772939 315 22833ft 384kts
29-Sep-18 09:51 33.181830 -117.849848 314 25128ft 396kts
29-Sep-18 09:52 33.267902 -117.934385 315 27379ft 409kts
29-Sep-18 09:53 33.357114 -118.021471 315 29450ft 420kts
29-Sep-18 09:54 33.446655 -118.109125 315 31846ft 414kts
29-Sep-18 09:55 33.538515 -118.199555 315 32023ft 446kts
29-Sep-18 09:56 33.647657 -118.276484 331 32007ft 465kts
29-Sep-18 09:57 33.764443 -118.340227 330 32008ft 465kts
29-Sep-18 09:58 33.883467 -118.399997 332 32008ft 466kts
29-Sep-18 09:59 34.003669 -118.458125 340 32006ft 471kts
29-Sep-18 10:00 34.129889 -118.479719 348 31998ft 477kts
29-Sep-18 10:01 34.260755 -118.499642 348 31995ft 477kts
29-Sep-18 10:02 34.391559 -118.519808 348 32026ft 477kts
29-Sep-18 10:03 34.522557 -118.540078 348 32030ft 476kts
29-Sep-18 10:04 34.653584 -118.560422 348 32016ft 477kts
29-Sep-18 10:05 34.784837 -118.580865 348 32023ft 477kts
29-Sep-18 10:06 34.916251 -118.601396 348 32072ft 478kts
29-Sep-18 10:07 35.040374 -118.649421 323 32074ft 466kts
29-Sep-18 10:08 35.133109 -118.737967 312 32047ft 456kts
29-Sep-18 10:09 35.229613 -118.836507 313 31999ft 456kts
29-Sep-18 10:10 35.326684 -118.935523 312 31998ft 457kts
29-Sep-18 10:11 35.424457 -119.035558 312 31998ft 459kts
29-Sep-18 10:12 35.530764 -119.123194 328 32007ft 477kts
29-Sep-18 10:13 35.652646 -119.187643 329 32006ft 477kts
29-Sep-18 10:14 35.773278 -119.252554 328 32004ft 478kts
29-Sep-18 10:15 35.896000 -119.318890 328 32011ft 482kts
29-Sep-18 10:16 36.018121 -119.385129 328 32012ft 482kts
29-Sep-18 10:17 36.137827 -119.450282 328 31999ft 482kts
29-Sep-18 10:18 36.259898 -119.516957 328 32000ft 482kts
29-Sep-18 10:19 36.382152 -119.583962 328 32001ft 482kts
29-Sep-18 10:20 36.503590 -119.650744 327 32001ft 482kts
29-Sep-18 10:21 36.622427 -119.718707 318 32006ft 471kts
29-Sep-18 10:22 36.731060 -119.807609 319 31939ft 465kts
29-Sep-18 10:23 36.838779 -119.892054 318 30989ft 458kts
29-Sep-18 10:24 36.946109 -119.976703 319 30042ft 461kts
29-Sep-18 10:25 37.055343 -120.063182 319 29101ft 473kts
29-Sep-18 10:26 37.147210 -120.136140 319 28992ft 486kts
29-Sep-18 10:27 37.260212 -120.226038 319 28983ft 484kts
29-Sep-18 10:28 37.372523 -120.315711 319 27145ft 471kts
29-Sep-18 10:29 37.478829 -120.401738 315 24368ft 439kts
29-Sep-18 10:30 37.569954 -120.494063 314 21834ft 418kts
29-Sep-18 10:31 37.658007 -120.582400 315 20621ft 400kts
29-Sep-18 10:32 37.740817 -120.665760 315 19010ft 399kts
29-Sep-18 10:33 37.824878 -120.750612 315 19003ft 400kts
29-Sep-18 10:34 37.910919 -120.837789 315 19017ft 401kts
29-Sep-18 10:35 37.993279 -120.921480 315 19020ft 401kts
29-Sep-18 10:36 38.079857 -121.009972 311 19027ft 396kts
29-Sep-18 10:37 38.146960 -121.110994 303 19010ft 381kts
29-Sep-18 10:38 38.212778 -121.208247 304 16306ft 355kts
29-Sep-18 10:39 38.276309 -121.297919 307 13852ft 328kts
29-Sep-18 10:40 38.332152 -121.376118 307 11722ft 271kts
29-Sep-18 10:41 38.379659 -121.443040 308 9335ft 246kts
29-Sep-18 10:42 38.424602 -121.506604 308 6837ft 239kts
29-Sep-18 10:43 38.468090 -121.568218 309 4277ft 232kts
29-Sep-18 10:44 38.517467 -121.605315 3 3325ft 198kts
29-Sep-18 10:45 38.568104 -121.603222 1 2336ft 163kts
29-Sep-18 10:46 38.610237 -121.602557 1 1513ft 147kts
29-Sep-18 10:47 38.649827 -121.602066 2 751ft 142kts
29-Sep-18 10:48 38.687805 -121.601389 1 30ft 128kts
29-Sep-18 10:49 38.697051 -121.599358 90 26ft 5kts
29-Sep-18 10:50 38.697019 -121.597563 91 27ft 17kts
29-Sep-18 10:51 38.695992 -121.595337 118 27ft 0kts
29-Sep-18 10:52 38.695992 -121.595337 118 27ft 0kts
29-Sep-18 10:53 38.695992 -121.595337 118 27ft 0kts
29-Sep-18 10:54 38.695992 -121.595337 118 27ft 0kts
29-Sep-18 10:55 38.695992 -121.595337 118 27ft 0kts
29-Sep-18 10:56 38.695992 -121.595337 118 27ft 0kts
29-Sep-18 10:57 38.695992 -121.595337 118 27ft 0kts
29-Sep-18 10:58 38.695992 -121.595337 118 27ft 0kts
29-Sep-18 10:59 38.695992 -121.595337 118 27ft 0kts
29-Sep-18 11:00 38.695992 -121.595337 118 27ft 0kts
29-Sep-18 11:01 38.695992 -121.595337 118 27ft 0kts
29-Sep-18 11:02 38.695992 -121.595337 118 27ft 0kts
29-Sep-18 11:03 38.695992 -121.595337 118 27ft 0kts

Navigation Log

Ident Type
Flight plan parsing failed, navigation log unavailable